Aeroporto :
LOGIN :

Iscrizione | Disclaimer

   EN    FR    IT 

 










Sommario :    VFR   VFR Marginale   IFR   IFR Intensivo   IFR Molto Intensivo
Visibilità : 
Base nubi : 
>= 8 km
>= 3000ft
5 / 8 km
1000 / 3000 ft
1500m / 5 km
500 / 1000 ft
800 / 1500m
200 / 500 ft
< 800m
< 200 ft
Simboli :   Temporali  Nebbia  Neve Forte  Precipitazioni Forti  Vento > 20 kt
SIGMETs :   Varie  Temporali  Ghiacco  Turbolenza  Onda orograficha  Ceneri Vulcaniche






- Altitudine del aeroporto : 1585 ft
- Codice IATA : SIR


LSGS - Sion

ULTIMO METAR :
  • 141850Z AUTO 09017G32KT 040V130 CAVOK 09/M03 Q0998

METARs OBSOLETI :
  • 141820Z AUTO 08021G35KT 030V110 CAVOK 09/M03 Q0997
  • 141750Z 08021G35KT 030V110 9999 SCT080 OVC100 09/M04 Q0997
  • 141720Z 08014G24KT 020V110 9999 SCT080 OVC100 09/M04 Q0997
  • 141650Z 08013KT 050V120 9999 SCT080 OVC100 10/M04 Q0998
  • 141620Z 08016KT 040V140 9999 SCT080 OVC100 10/M04 Q0997
  • 141550Z 09014G31KT 030V130 9999 SCT080 OVC100 10/M04 Q0997

TAF TAF LSGS
Valido dal 14 a 15 ore il 15 a 00 ore UTC


141425Z 1415/1424 VRB03KT 9999 SCT080 OVC100
BECMG 1415/1418 07015G25KT



MetMap, La meteo Aeronautica in un colpo d'occhio ! - Copyright ORBIFLY Dicembre 2007 - Disclaimer

ORBIFLY MET'MAP TEAM :

Programmazione e sviluppo : Alexandra Zaïnal
Concezione e sviluppo : Baudouin d'Aumeries
Co-Programmazione e sviluppo : Marc-Olivier Méhu
Supporto tecnico e logistico : Manuel Goepfert
Aiuto per la traduzione : Arnaldo La Scala

Contatto : metmap@orbifly.com




FONTI E CREDITI :

   NOAA